sensor_id;sensor_type;location;lat;lon;timestamp;P1;durP1;ratioP1;P2;durP2;ratioP2
6031;SDS011;3044;43.232;27.972;2023-08-12T00:01:17;7.33;;;3.30;;
6031;SDS011;3044;43.232;27.972;2023-08-12T00:03:46;7.13;;;3.83;;
6031;SDS011;3044;43.232;27.972;2023-08-12T00:06:13;5.20;;;3.63;;
6031;SDS011;3044;43.232;27.972;2023-08-12T00:08:40;2.83;;;2.60;;
6031;SDS011;3044;43.232;27.972;2023-08-12T00:11:07;5.70;;;3.43;;
6031;SDS011;3044;43.232;27.972;2023-08-12T00:13:36;10.40;;;3.07;;
6031;SDS011;3044;43.232;27.972;2023-08-12T00:16:03;3.60;;;3.30;;
6031;SDS011;3044;43.232;27.972;2023-08-12T00:18:31;4.10;;;3.70;;
6031;SDS011;3044;43.232;27.972;2023-08-12T00:21:04;4.43;;;3.20;;
6031;SDS011;3044;43.232;27.972;2023-08-12T00:23:35;4.80;;;3.87;;
6031;SDS011;3044;43.232;27.972;2023-08-12T00:26:03;3.63;;;3.33;;
6031;SDS011;3044;43.232;27.972;2023-08-12T00:28:31;4.33;;;3.93;;
6031;SDS011;3044;43.232;27.972;2023-08-12T00:31:00;6.87;;;3.60;;
6031;SDS011;3044;43.232;27.972;2023-08-12T00:33:27;7.50;;;4.13;;
6031;SDS011;3044;43.232;27.972;2023-08-12T00:35:54;5.20;;;3.63;;
6031;SDS011;3044;43.232;27.972;2023-08-12T00:38:21;6.07;;;3.50;;
6031;SDS011;3044;43.232;27.972;2023-08-12T00:40:48;7.20;;;4.27;;
6031;SDS011;3044;43.232;27.972;2023-08-12T00:43:15;11.13;;;3.60;;
6031;SDS011;3044;43.232;27.972;2023-08-12T00:45:42;5.00;;;4.50;;
6031;SDS011;3044;43.232;27.972;2023-08-12T00:48:11;6.20;;;4.40;;
6031;SDS011;3044;43.232;27.972;2023-08-12T00:50:39;8.00;;;4.53;;
6031;SDS011;3044;43.232;27.972;2023-08-12T00:53:06;11.23;;;4.60;;
6031;SDS011;3044;43.232;27.972;2023-08-12T00:55:35;6.97;;;3.70;;
6031;SDS011;3044;43.232;27.972;2023-08-12T00:58:02;6.87;;;3.93;;
6031;SDS011;3044;43.232;27.972;2023-08-12T01:00:31;5.43;;;4.67;;
6031;SDS011;3044;43.232;27.972;2023-08-12T01:02:58;4.83;;;4.10;;
6031;SDS011;3044;43.232;27.972;2023-08-12T01:05:28;4.50;;;4.10;;
6031;SDS011;3044;43.232;27.972;2023-08-12T01:07:56;8.10;;;4.60;;
6031;SDS011;3044;43.232;27.972;2023-08-12T01:10:23;4.03;;;3.73;;
6031;SDS011;3044;43.232;27.972;2023-08-12T01:12:55;5.13;;;3.70;;
6031;SDS011;3044;43.232;27.972;2023-08-12T01:15:32;7.00;;;4.33;;
6031;SDS011;3044;43.232;27.972;2023-08-12T01:18:00;7.77;;;4.13;;
6031;SDS011;3044;43.232;27.972;2023-08-12T01:20:30;5.47;;;4.60;;
6031;SDS011;3044;43.232;27.972;2023-08-12T01:22:58;7.00;;;4.77;;
6031;SDS011;3044;43.232;27.972;2023-08-12T01:25:39;11.67;;;4.67;;
6031;SDS011;3044;43.232;27.972;2023-08-12T01:28:06;8.07;;;5.10;;
6031;SDS011;3044;43.232;27.972;2023-08-12T01:30:34;10.53;;;4.23;;
6031;SDS011;3044;43.232;27.972;2023-08-12T01:33:08;8.03;;;5.07;;
6031;SDS011;3044;43.232;27.972;2023-08-12T01:35:39;8.37;;;5.10;;
6031;SDS011;3044;43.232;27.972;2023-08-12T01:38:11;6.67;;;4.90;;
6031;SDS011;3044;43.232;27.972;2023-08-12T01:40:39;7.40;;;4.67;;
6031;SDS011;3044;43.232;27.972;2023-08-12T01:43:08;6.67;;;4.87;;
6031;SDS011;3044;43.232;27.972;2023-08-12T01:45:35;11.80;;;4.67;;
6031;SDS011;3044;43.232;27.972;2023-08-12T01:48:03;7.37;;;4.77;;
6031;SDS011;3044;43.232;27.972;2023-08-12T01:50:30;16.00;;;5.53;;
6031;SDS011;3044;43.232;27.972;2023-08-12T01:52:58;7.27;;;4.60;;
6031;SDS011;3044;43.232;27.972;2023-08-12T01:55:26;10.80;;;5.73;;
6031;SDS011;3044;43.232;27.972;2023-08-12T01:57:53;5.20;;;4.70;;
6031;SDS011;3044;43.232;27.972;2023-08-12T02:00:20;5.90;;;4.40;;
6031;SDS011;3044;43.232;27.972;2023-08-12T02:02:48;5.60;;;4.67;;
6031;SDS011;3044;43.232;27.972;2023-08-12T02:05:15;5.97;;;4.70;;
6031;SDS011;3044;43.232;27.972;2023-08-12T02:07:42;8.23;;;5.13;;
6031;SDS011;3044;43.232;27.972;2023-08-12T02:10:10;4.93;;;4.47;;
6031;SDS011;3044;43.232;27.972;2023-08-12T02:12:41;5.60;;;5.10;;
6031;SDS011;3044;43.232;27.972;2023-08-12T02:15:09;7.63;;;5.40;;
6031;SDS011;3044;43.232;27.972;2023-08-12T02:17:36;13.80;;;5.77;;
6031;SDS011;3044;43.232;27.972;2023-08-12T02:20:04;13.87;;;4.87;;
6031;SDS011;3044;43.232;27.972;2023-08-12T02:22:32;5.30;;;4.63;;
6031;SDS011;3044;43.232;27.972;2023-08-12T02:24:59;8.03;;;5.03;;
6031;SDS011;3044;43.232;27.972;2023-08-12T02:27:26;8.13;;;5.70;;
6031;SDS011;3044;43.232;27.972;2023-08-12T02:29:55;6.33;;;5.63;;
6031;SDS011;3044;43.232;27.972;2023-08-12T02:32:22;7.47;;;4.93;;
6031;SDS011;3044;43.232;27.972;2023-08-12T02:34:49;6.20;;;5.60;;
6031;SDS011;3044;43.232;27.972;2023-08-12T02:37:16;5.53;;;4.73;;
6031;SDS011;3044;43.232;27.972;2023-08-12T02:39:43;8.70;;;5.30;;
6031;SDS011;3044;43.232;27.972;2023-08-12T02:42:10;6.83;;;5.40;;
6031;SDS011;3044;43.232;27.972;2023-08-12T02:44:37;7.73;;;5.07;;
6031;SDS011;3044;43.232;27.972;2023-08-12T02:47:06;6.40;;;4.83;;
6031;SDS011;3044;43.232;27.972;2023-08-12T02:49:33;9.40;;;5.83;;
6031;SDS011;3044;43.232;27.972;2023-08-12T02:52:00;7.53;;;5.57;;
6031;SDS011;3044;43.232;27.972;2023-08-12T02:54:28;7.50;;;5.17;;
6031;SDS011;3044;43.232;27.972;2023-08-12T02:56:55;8.33;;;4.87;;
6031;SDS011;3044;43.232;27.972;2023-08-12T02:59:22;14.00;;;5.23;;
6031;SDS011;3044;43.232;27.972;2023-08-12T03:01:50;6.10;;;5.57;;
6031;SDS011;3044;43.232;27.972;2023-08-12T03:04:19;6.00;;;5.50;;
6031;SDS011;3044;43.232;27.972;2023-08-12T03:06:46;6.80;;;5.97;;
6031;SDS011;3044;43.232;27.972;2023-08-12T03:09:13;11.30;;;5.83;;
6031;SDS011;3044;43.232;27.972;2023-08-12T03:11:40;8.00;;;5.77;;
6031;SDS011;3044;43.232;27.972;2023-08-12T03:14:07;7.20;;;5.50;;
6031;SDS011;3044;43.232;27.972;2023-08-12T03:16:34;5.73;;;5.23;;
6031;SDS011;3044;43.232;27.972;2023-08-12T03:19:01;6.70;;;5.17;;
6031;SDS011;3044;43.232;27.972;2023-08-12T03:21:30;6.87;;;5.43;;
6031;SDS011;3044;43.232;27.972;2023-08-12T03:23:57;8.13;;;5.20;;
6031;SDS011;3044;43.232;27.972;2023-08-12T03:26:24;6.30;;;5.40;;
6031;SDS011;3044;43.232;27.972;2023-08-12T03:28:51;6.37;;;5.67;;
6031;SDS011;3044;43.232;27.972;2023-08-12T03:31:19;7.30;;;5.40;;
6031;SDS011;3044;43.232;27.972;2023-08-12T03:33:46;5.33;;;4.83;;
6031;SDS011;3044;43.232;27.972;2023-08-12T03:36:13;10.63;;;5.00;;
6031;SDS011;3044;43.232;27.972;2023-08-12T03:38:41;6.20;;;5.60;;
6031;SDS011;3044;43.232;27.972;2023-08-12T03:41:08;6.30;;;5.70;;
6031;SDS011;3044;43.232;27.972;2023-08-12T03:43:35;6.93;;;5.60;;
6031;SDS011;3044;43.232;27.972;2023-08-12T03:46:03;6.10;;;4.50;;
6031;SDS011;3044;43.232;27.972;2023-08-12T03:48:30;8.53;;;5.70;;
6031;SDS011;3044;43.232;27.972;2023-08-12T03:50:57;10.00;;;5.73;;
6031;SDS011;3044;43.232;27.972;2023-08-12T03:53:24;12.70;;;5.00;;
6031;SDS011;3044;43.232;27.972;2023-08-12T03:55:52;6.50;;;5.33;;
6031;SDS011;3044;43.232;27.972;2023-08-12T03:58:19;7.13;;;4.70;;
6031;SDS011;3044;43.232;27.972;2023-08-12T04:00:46;9.10;;;5.30;;
6031;SDS011;3044;43.232;27.972;2023-08-12T04:03:14;7.43;;;4.87;;
6031;SDS011;3044;43.232;27.972;2023-08-12T04:05:46;9.87;;;5.27;;
6031;SDS011;3044;43.232;27.972;2023-08-12T04:08:15;8.03;;;5.57;;
6031;SDS011;3044;43.232;27.972;2023-08-12T04:10:44;6.43;;;5.20;;
6031;SDS011;3044;43.232;27.972;2023-08-12T04:13:14;5.33;;;4.83;;
6031;SDS011;3044;43.232;27.972;2023-08-12T04:15:41;5.23;;;4.50;;
6031;SDS011;3044;43.232;27.972;2023-08-12T04:18:09;5.40;;;4.90;;
6031;SDS011;3044;43.232;27.972;2023-08-12T04:20:36;8.37;;;4.63;;
6031;SDS011;3044;43.232;27.972;2023-08-12T04:23:04;6.97;;;4.43;;
6031;SDS011;3044;43.232;27.972;2023-08-12T04:25:32;5.67;;;4.40;;
6031;SDS011;3044;43.232;27.972;2023-08-12T04:27:59;4.77;;;4.17;;
6031;SDS011;3044;43.232;27.972;2023-08-12T04:30:27;7.53;;;4.67;;
6031;SDS011;3044;43.232;27.972;2023-08-12T04:32:54;8.87;;;4.23;;
6031;SDS011;3044;43.232;27.972;2023-08-12T04:35:21;8.67;;;4.43;;
6031;SDS011;3044;43.232;27.972;2023-08-12T04:37:48;9.07;;;4.10;;
6031;SDS011;3044;43.232;27.972;2023-08-12T04:40:16;4.60;;;4.20;;
6031;SDS011;3044;43.232;27.972;2023-08-12T04:42:43;7.00;;;4.93;;
6031;SDS011;3044;43.232;27.972;2023-08-12T04:45:10;3.97;;;3.67;;
6031;SDS011;3044;43.232;27.972;2023-08-12T04:47:39;7.90;;;4.53;;
6031;SDS011;3044;43.232;27.972;2023-08-12T04:50:07;10.50;;;4.10;;
6031;SDS011;3044;43.232;27.972;2023-08-12T04:52:34;6.93;;;4.83;;
6031;SDS011;3044;43.232;27.972;2023-08-12T04:55:01;7.60;;;4.60;;
6031;SDS011;3044;43.232;27.972;2023-08-12T04:57:29;4.43;;;3.70;;
6031;SDS011;3044;43.232;27.972;2023-08-12T04:59:57;10.13;;;4.73;;
6031;SDS011;3044;43.232;27.972;2023-08-12T05:02:24;4.10;;;3.70;;
6031;SDS011;3044;43.232;27.972;2023-08-12T05:04:52;5.00;;;4.00;;
6031;SDS011;3044;43.232;27.972;2023-08-12T05:07:19;4.30;;;3.73;;
6031;SDS011;3044;43.232;27.972;2023-08-12T05:09:47;6.77;;;4.23;;
6031;SDS011;3044;43.232;27.972;2023-08-12T05:12:14;12.17;;;4.20;;
6031;SDS011;3044;43.232;27.972;2023-08-12T05:14:41;3.73;;;3.43;;
6031;SDS011;3044;43.232;27.972;2023-08-12T05:17:08;4.37;;;3.97;;
6031;SDS011;3044;43.232;27.972;2023-08-12T05:19:36;7.17;;;3.67;;
6031;SDS011;3044;43.232;27.972;2023-08-12T05:22:04;6.60;;;4.17;;
6031;SDS011;3044;43.232;27.972;2023-08-12T05:24:31;5.70;;;4.23;;
6031;SDS011;3044;43.232;27.972;2023-08-12T05:26:58;4.67;;;4.20;;
6031;SDS011;3044;43.232;27.972;2023-08-12T05:29:25;4.53;;;3.63;;
6031;SDS011;3044;43.232;27.972;2023-08-12T05:31:53;3.90;;;3.40;;
6031;SDS011;3044;43.232;27.972;2023-08-12T05:34:20;7.37;;;4.27;;
6031;SDS011;3044;43.232;27.972;2023-08-12T05:36:47;7.17;;;3.70;;
6031;SDS011;3044;43.232;27.972;2023-08-12T05:39:15;6.37;;;3.80;;
6031;SDS011;3044;43.232;27.972;2023-08-12T05:41:43;12.83;;;4.50;;
6031;SDS011;3044;43.232;27.972;2023-08-12T05:44:11;10.50;;;4.20;;
6031;SDS011;3044;43.232;27.972;2023-08-12T05:46:38;7.93;;;3.80;;
6031;SDS011;3044;43.232;27.972;2023-08-12T05:49:05;13.43;;;3.13;;
6031;SDS011;3044;43.232;27.972;2023-08-12T05:51:33;7.43;;;3.37;;
6031;SDS011;3044;43.232;27.972;2023-08-12T05:54:00;4.80;;;3.47;;
6031;SDS011;3044;43.232;27.972;2023-08-12T05:56:28;7.00;;;3.50;;
6031;SDS011;3044;43.232;27.972;2023-08-12T05:58:55;13.67;;;3.80;;
6031;SDS011;3044;43.232;27.972;2023-08-12T06:01:22;5.90;;;3.40;;
6031;SDS011;3044;43.232;27.972;2023-08-12T06:03:49;7.03;;;3.80;;
6031;SDS011;3044;43.232;27.972;2023-08-12T06:06:17;7.97;;;3.50;;
6031;SDS011;3044;43.232;27.972;2023-08-12T06:08:44;4.03;;;3.20;;
6031;SDS011;3044;43.232;27.972;2023-08-12T06:11:11;5.83;;;3.50;;
6031;SDS011;3044;43.232;27.972;2023-08-12T06:13:39;3.73;;;3.43;;
6031;SDS011;3044;43.232;27.972;2023-08-12T06:16:06;5.03;;;3.53;;
6031;SDS011;3044;43.232;27.972;2023-08-12T06:18:34;3.63;;;3.33;;
6031;SDS011;3044;43.232;27.972;2023-08-12T06:21:01;4.57;;;3.73;;
6031;SDS011;3044;43.232;27.972;2023-08-12T06:23:28;5.47;;;3.53;;
6031;SDS011;3044;43.232;27.972;2023-08-12T06:25:56;7.70;;;4.03;;
6031;SDS011;3044;43.232;27.972;2023-08-12T06:28:23;8.33;;;4.47;;
6031;SDS011;3044;43.232;27.972;2023-08-12T06:30:52;3.47;;;3.17;;
6031;SDS011;3044;43.232;27.972;2023-08-12T06:33:19;3.30;;;3.00;;
6031;SDS011;3044;43.232;27.972;2023-08-12T06:35:46;13.70;;;3.53;;
6031;SDS011;3044;43.232;27.972;2023-08-12T06:38:13;7.30;;;3.23;;
6031;SDS011;3044;43.232;27.972;2023-08-12T06:40:40;3.77;;;3.57;;
6031;SDS011;3044;43.232;27.972;2023-08-12T06:43:07;4.30;;;3.20;;
6031;SDS011;3044;43.232;27.972;2023-08-12T06:45:35;3.40;;;3.10;;
6031;SDS011;3044;43.232;27.972;2023-08-12T06:48:04;3.97;;;3.60;;
6031;SDS011;3044;43.232;27.972;2023-08-12T06:50:32;4.70;;;3.60;;
6031;SDS011;3044;43.232;27.972;2023-08-12T06:52:59;3.97;;;3.57;;
6031;SDS011;3044;43.232;27.972;2023-08-12T06:55:26;4.60;;;3.60;;
6031;SDS011;3044;43.232;27.972;2023-08-12T06:57:53;13.13;;;4.30;;
6031;SDS011;3044;43.232;27.972;2023-08-12T07:00:20;12.70;;;5.23;;
6031;SDS011;3044;43.232;27.972;2023-08-12T07:02:48;11.27;;;4.30;;
6031;SDS011;3044;43.232;27.972;2023-08-12T07:05:16;8.27;;;3.60;;
6031;SDS011;3044;43.232;27.972;2023-08-12T07:07:43;10.93;;;4.10;;
6031;SDS011;3044;43.232;27.972;2023-08-12T07:10:10;4.90;;;3.90;;
6031;SDS011;3044;43.232;27.972;2023-08-12T07:12:37;5.50;;;3.73;;
6031;SDS011;3044;43.232;27.972;2023-08-12T07:15:05;11.30;;;4.00;;
6031;SDS011;3044;43.232;27.972;2023-08-12T07:17:33;8.10;;;4.90;;
6031;SDS011;3044;43.232;27.972;2023-08-12T07:20:00;6.70;;;4.43;;
6031;SDS011;3044;43.232;27.972;2023-08-12T07:22:30;5.17;;;4.77;;
6031;SDS011;3044;43.232;27.972;2023-08-12T07:24:57;7.30;;;4.30;;
6031;SDS011;3044;43.232;27.972;2023-08-12T07:27:25;9.90;;;4.03;;
6031;SDS011;3044;43.232;27.972;2023-08-12T07:29:52;9.47;;;4.67;;
6031;SDS011;3044;43.232;27.972;2023-08-12T07:32:19;11.93;;;4.43;;
6031;SDS011;3044;43.232;27.972;2023-08-12T07:34:47;8.60;;;4.67;;
6031;SDS011;3044;43.232;27.972;2023-08-12T07:37:14;9.83;;;4.53;;
6031;SDS011;3044;43.232;27.972;2023-08-12T07:39:43;8.00;;;4.63;;
6031;SDS011;3044;43.232;27.972;2023-08-12T07:42:10;5.67;;;4.50;;
6031;SDS011;3044;43.232;27.972;2023-08-12T07:44:37;5.07;;;4.50;;
6031;SDS011;3044;43.232;27.972;2023-08-12T07:47:04;6.87;;;4.60;;
6031;SDS011;3044;43.232;27.972;2023-08-12T07:49:32;6.57;;;4.17;;
6031;SDS011;3044;43.232;27.972;2023-08-12T07:51:59;6.40;;;4.43;;
6031;SDS011;3044;43.232;27.972;2023-08-12T07:54:26;9.43;;;4.50;;
6031;SDS011;3044;43.232;27.972;2023-08-12T07:56:54;5.03;;;4.40;;
6031;SDS011;3044;43.232;27.972;2023-08-12T07:59:21;17.57;;;4.27;;
6031;SDS011;3044;43.232;27.972;2023-08-12T08:01:49;7.57;;;3.90;;
6031;SDS011;3044;43.232;27.972;2023-08-12T08:04:16;8.33;;;4.50;;
6031;SDS011;3044;43.232;27.972;2023-08-12T08:06:43;5.73;;;4.67;;
6031;SDS011;3044;43.232;27.972;2023-08-12T08:09:10;6.03;;;4.73;;
6031;SDS011;3044;43.232;27.972;2023-08-12T08:11:37;7.07;;;4.40;;
6031;SDS011;3044;43.232;27.972;2023-08-12T08:14:05;7.30;;;4.60;;
6031;SDS011;3044;43.232;27.972;2023-08-12T08:16:33;4.80;;;4.30;;
6031;SDS011;3044;43.232;27.972;2023-08-12T08:19:00;8.80;;;4.30;;
6031;SDS011;3044;43.232;27.972;2023-08-12T08:21:27;10.97;;;3.80;;
6031;SDS011;3044;43.232;27.972;2023-08-12T08:23:54;7.27;;;4.60;;
6031;SDS011;3044;43.232;27.972;2023-08-12T08:26:21;8.90;;;3.97;;
6031;SDS011;3044;43.232;27.972;2023-08-12T08:28:48;12.87;;;4.57;;
6031;SDS011;3044;43.232;27.972;2023-08-12T08:31:17;15.07;;;4.77;;
6031;SDS011;3044;43.232;27.972;2023-08-12T08:33:44;10.73;;;4.83;;
6031;SDS011;3044;43.232;27.972;2023-08-12T08:36:11;6.20;;;4.40;;
6031;SDS011;3044;43.232;27.972;2023-08-12T08:38:38;5.93;;;4.30;;
6031;SDS011;3044;43.232;27.972;2023-08-12T08:41:05;10.87;;;4.70;;
6031;SDS011;3044;43.232;27.972;2023-08-12T08:43:36;4.80;;;4.20;;
6031;SDS011;3044;43.232;27.972;2023-08-12T08:46:05;8.57;;;5.50;;
6031;SDS011;3044;43.232;27.972;2023-08-12T08:48:35;9.40;;;4.30;;
6031;SDS011;3044;43.232;27.972;2023-08-12T08:51:03;4.70;;;4.20;;
6031;SDS011;3044;43.232;27.972;2023-08-12T08:53:32;5.57;;;4.30;;
6031;SDS011;3044;43.232;27.972;2023-08-12T08:56:01;10.33;;;5.40;;
6031;SDS011;3044;43.232;27.972;2023-08-12T08:58:28;8.20;;;4.40;;
6031;SDS011;3044;43.232;27.972;2023-08-12T09:00:56;4.83;;;4.43;;
6031;SDS011;3044;43.232;27.972;2023-08-12T09:03:23;11.27;;;4.60;;
6031;SDS011;3044;43.232;27.972;2023-08-12T09:05:53;6.80;;;4.13;;
6031;SDS011;3044;43.232;27.972;2023-08-12T09:08:22;5.60;;;4.17;;
6031;SDS011;3044;43.232;27.972;2023-08-12T09:10:50;14.30;;;9.07;;
6031;SDS011;3044;43.232;27.972;2023-08-12T09:13:18;6.97;;;6.20;;
6031;SDS011;3044;43.232;27.972;2023-08-12T09:15:45;11.30;;;6.30;;
6031;SDS011;3044;43.232;27.972;2023-08-12T09:18:12;5.17;;;4.67;;
6031;SDS011;3044;43.232;27.972;2023-08-12T09:20:39;6.50;;;4.53;;
6031;SDS011;3044;43.232;27.972;2023-08-12T09:23:10;7.80;;;4.83;;
6031;SDS011;3044;43.232;27.972;2023-08-12T09:25:41;8.33;;;5.87;;
6031;SDS011;3044;43.232;27.972;2023-08-12T09:28:09;6.73;;;4.63;;
6031;SDS011;3044;43.232;27.972;2023-08-12T09:30:37;4.53;;;3.63;;
6031;SDS011;3044;43.232;27.972;2023-08-12T09:33:05;11.20;;;4.50;;
6031;SDS011;3044;43.232;27.972;2023-08-12T09:35:34;6.50;;;4.20;;
6031;SDS011;3044;43.232;27.972;2023-08-12T09:38:02;10.80;;;4.57;;
6031;SDS011;3044;43.232;27.972;2023-08-12T09:40:32;12.40;;;6.07;;
6031;SDS011;3044;43.232;27.972;2023-08-12T09:43:00;5.27;;;4.40;;
6031;SDS011;3044;43.232;27.972;2023-08-12T09:45:29;5.97;;;4.70;;
6031;SDS011;3044;43.232;27.972;2023-08-12T09:47:56;7.90;;;4.43;;
6031;SDS011;3044;43.232;27.972;2023-08-12T09:50:24;7.73;;;4.93;;
6031;SDS011;3044;43.232;27.972;2023-08-12T09:52:52;9.40;;;4.33;;
6031;SDS011;3044;43.232;27.972;2023-08-12T09:55:21;7.20;;;4.10;;
6031;SDS011;3044;43.232;27.972;2023-08-12T09:57:51;9.17;;;3.90;;
6031;SDS011;3044;43.232;27.972;2023-08-12T10:00:19;5.40;;;4.20;;
6031;SDS011;3044;43.232;27.972;2023-08-12T10:02:48;5.60;;;4.30;;
6031;SDS011;3044;43.232;27.972;2023-08-12T10:05:19;6.20;;;4.10;;
6031;SDS011;3044;43.232;27.972;2023-08-12T10:07:51;6.37;;;4.00;;
6031;SDS011;3044;43.232;27.972;2023-08-12T10:10:19;4.53;;;3.80;;
6031;SDS011;3044;43.232;27.972;2023-08-12T10:12:47;10.07;;;4.10;;
6031;SDS011;3044;43.232;27.972;2023-08-12T10:15:16;5.47;;;4.17;;
6031;SDS011;3044;43.232;27.972;2023-08-12T10:17:44;5.67;;;4.43;;
6031;SDS011;3044;43.232;27.972;2023-08-12T10:20:12;5.57;;;4.10;;
6031;SDS011;3044;43.232;27.972;2023-08-12T10:22:40;5.83;;;3.93;;
6031;SDS011;3044;43.232;27.972;2023-08-12T10:25:10;8.00;;;3.83;;
6031;SDS011;3044;43.232;27.972;2023-08-12T10:27:40;10.70;;;4.07;;
6031;SDS011;3044;43.232;27.972;2023-08-12T10:30:08;9.23;;;3.67;;
6031;SDS011;3044;43.232;27.972;2023-08-12T10:32:37;5.83;;;4.33;;
6031;SDS011;3044;43.232;27.972;2023-08-12T10:35:05;4.87;;;4.07;;
6031;SDS011;3044;43.232;27.972;2023-08-12T10:37:34;10.80;;;4.20;;
6031;SDS011;3044;43.232;27.972;2023-08-12T10:40:02;11.20;;;4.97;;
6031;SDS011;3044;43.232;27.972;2023-08-12T10:42:41;5.77;;;4.03;;
6031;SDS011;3044;43.232;27.972;2023-08-12T10:45:10;11.40;;;4.63;;
6031;SDS011;3044;43.232;27.972;2023-08-12T10:47:40;3.83;;;3.33;;
6031;SDS011;3044;43.232;27.972;2023-08-12T10:50:18;6.67;;;3.77;;
6031;SDS011;3044;43.232;27.972;2023-08-12T10:52:46;3.87;;;3.57;;
6031;SDS011;3044;43.232;27.972;2023-08-12T10:55:20;7.80;;;3.80;;
6031;SDS011;3044;43.232;27.972;2023-08-12T10:57:48;15.97;;;3.60;;
6031;SDS011;3044;43.232;27.972;2023-08-12T11:00:16;6.63;;;3.07;;
6031;SDS011;3044;43.232;27.972;2023-08-12T11:02:45;5.00;;;3.17;;
6031;SDS011;3044;43.232;27.972;2023-08-12T11:05:15;5.73;;;3.37;;
6031;SDS011;3044;43.232;27.972;2023-08-12T11:07:44;8.10;;;3.40;;
6031;SDS011;3044;43.232;27.972;2023-08-12T11:10:13;10.00;;;2.90;;
6031;SDS011;3044;43.232;27.972;2023-08-12T11:12:42;5.43;;;3.20;;
6031;SDS011;3044;43.232;27.972;2023-08-12T11:15:14;4.50;;;3.53;;
6031;SDS011;3044;43.232;27.972;2023-08-12T11:17:42;8.47;;;3.20;;
6031;SDS011;3044;43.232;27.972;2023-08-12T11:20:11;4.33;;;3.00;;
6031;SDS011;3044;43.232;27.972;2023-08-12T11:22:40;3.00;;;2.70;;
6031;SDS011;3044;43.232;27.972;2023-08-12T11:25:08;3.63;;;3.00;;
6031;SDS011;3044;43.232;27.972;2023-08-12T11:27:40;11.30;;;3.40;;
6031;SDS011;3044;43.232;27.972;2023-08-12T11:30:08;4.37;;;2.90;;
6031;SDS011;3044;43.232;27.972;2023-08-12T11:32:37;7.67;;;3.67;;
6031;SDS011;3044;43.232;27.972;2023-08-12T11:35:05;4.80;;;2.90;;
6031;SDS011;3044;43.232;27.972;2023-08-12T11:37:36;5.77;;;3.37;;
6031;SDS011;3044;43.232;27.972;2023-08-12T11:40:04;3.70;;;2.83;;
6031;SDS011;3044;43.232;27.972;2023-08-12T11:42:34;3.43;;;3.07;;
6031;SDS011;3044;43.232;27.972;2023-08-12T11:45:01;3.30;;;2.67;;
6031;SDS011;3044;43.232;27.972;2023-08-12T11:47:29;8.83;;;3.27;;
6031;SDS011;3044;43.232;27.972;2023-08-12T11:49:56;3.50;;;2.43;;
6031;SDS011;3044;43.232;27.972;2023-08-12T11:52:24;9.27;;;2.77;;
6031;SDS011;3044;43.232;27.972;2023-08-12T11:54:53;7.40;;;3.00;;
6031;SDS011;3044;43.232;27.972;2023-08-12T11:57:21;3.50;;;2.53;;
6031;SDS011;3044;43.232;27.972;2023-08-12T11:59:49;2.60;;;2.50;;
6031;SDS011;3044;43.232;27.972;2023-08-12T12:02:16;9.00;;;3.10;;
6031;SDS011;3044;43.232;27.972;2023-08-12T12:04:44;6.00;;;2.80;;
6031;SDS011;3044;43.232;27.972;2023-08-12T12:07:17;3.67;;;3.20;;
6031;SDS011;3044;43.232;27.972;2023-08-12T12:09:46;5.80;;;2.97;;
6031;SDS011;3044;43.232;27.972;2023-08-12T12:12:18;3.57;;;3.07;;
6031;SDS011;3044;43.232;27.972;2023-08-12T12:14:48;18.07;;;3.10;;
6031;SDS011;3044;43.232;27.972;2023-08-12T12:17:18;3.43;;;2.40;;
6031;SDS011;3044;43.232;27.972;2023-08-12T12:19:47;5.47;;;3.03;;
6031;SDS011;3044;43.232;27.972;2023-08-12T12:22:18;9.73;;;3.20;;
6031;SDS011;3044;43.232;27.972;2023-08-12T12:24:45;5.40;;;2.47;;
6031;SDS011;3044;43.232;27.972;2023-08-12T12:27:13;7.20;;;3.10;;
6031;SDS011;3044;43.232;27.972;2023-08-12T12:29:41;3.73;;;2.73;;
6031;SDS011;3044;43.232;27.972;2023-08-12T12:32:09;7.17;;;2.73;;
6031;SDS011;3044;43.232;27.972;2023-08-12T12:34:37;9.30;;;3.50;;
6031;SDS011;3044;43.232;27.972;2023-08-12T12:37:05;6.60;;;4.10;;
6031;SDS011;3044;43.232;27.972;2023-08-12T12:39:32;9.73;;;3.73;;
6031;SDS011;3044;43.232;27.972;2023-08-12T12:41:59;7.90;;;3.10;;
6031;SDS011;3044;43.232;27.972;2023-08-12T12:44:26;3.70;;;3.10;;
6031;SDS011;3044;43.232;27.972;2023-08-12T12:46:55;4.57;;;3.07;;
6031;SDS011;3044;43.232;27.972;2023-08-12T12:49:22;4.27;;;2.90;;
6031;SDS011;3044;43.232;27.972;2023-08-12T12:51:49;6.17;;;2.67;;
6031;SDS011;3044;43.232;27.972;2023-08-12T12:54:17;8.07;;;3.40;;
6031;SDS011;3044;43.232;27.972;2023-08-12T12:56:44;6.00;;;3.60;;
6031;SDS011;3044;43.232;27.972;2023-08-12T12:59:11;11.83;;;4.00;;
6031;SDS011;3044;43.232;27.972;2023-08-12T13:01:39;8.60;;;3.43;;
6031;SDS011;3044;43.232;27.972;2023-08-12T13:04:08;4.70;;;3.20;;
6031;SDS011;3044;43.232;27.972;2023-08-12T13:06:35;3.60;;;2.87;;
6031;SDS011;3044;43.232;27.972;2023-08-12T13:09:02;3.93;;;3.10;;
6031;SDS011;3044;43.232;27.972;2023-08-12T13:11:31;4.20;;;2.77;;
6031;SDS011;3044;43.232;27.972;2023-08-12T13:13:59;4.20;;;3.53;;
6031;SDS011;3044;43.232;27.972;2023-08-12T13:16:27;6.40;;;3.33;;
6031;SDS011;3044;43.232;27.972;2023-08-12T13:18:54;8.27;;;3.50;;
6031;SDS011;3044;43.232;27.972;2023-08-12T13:21:25;3.20;;;2.90;;
6031;SDS011;3044;43.232;27.972;2023-08-12T13:23:52;6.50;;;3.30;;
6031;SDS011;3044;43.232;27.972;2023-08-12T13:26:20;3.83;;;3.43;;
6031;SDS011;3044;43.232;27.972;2023-08-12T13:28:47;3.40;;;3.03;;
6031;SDS011;3044;43.232;27.972;2023-08-12T13:31:14;5.67;;;3.03;;
6031;SDS011;3044;43.232;27.972;2023-08-12T13:33:42;3.73;;;3.17;;
6031;SDS011;3044;43.232;27.972;2023-08-12T13:36:09;5.57;;;2.90;;
6031;SDS011;3044;43.232;27.972;2023-08-12T13:38:37;5.70;;;3.00;;
6031;SDS011;3044;43.232;27.972;2023-08-12T13:41:04;4.23;;;3.20;;
6031;SDS011;3044;43.232;27.972;2023-08-12T13:43:31;5.80;;;3.00;;
6031;SDS011;3044;43.232;27.972;2023-08-12T13:46:00;6.20;;;4.00;;
6031;SDS011;3044;43.232;27.972;2023-08-12T13:48:27;11.33;;;3.50;;
6031;SDS011;3044;43.232;27.972;2023-08-12T13:50:54;6.43;;;3.37;;
6031;SDS011;3044;43.232;27.972;2023-08-12T13:53:22;4.47;;;3.57;;
6031;SDS011;3044;43.232;27.972;2023-08-12T13:55:51;14.20;;;3.87;;
6031;SDS011;3044;43.232;27.972;2023-08-12T13:58:18;6.03;;;3.47;;
6031;SDS011;3044;43.232;27.972;2023-08-12T14:00:45;13.23;;;3.67;;
6031;SDS011;3044;43.232;27.972;2023-08-12T14:03:13;7.30;;;3.43;;
6031;SDS011;3044;43.232;27.972;2023-08-12T14:05:40;3.87;;;3.57;;
6031;SDS011;3044;43.232;27.972;2023-08-12T14:08:07;6.90;;;3.40;;
6031;SDS011;3044;43.232;27.972;2023-08-12T14:10:34;4.13;;;3.40;;
6031;SDS011;3044;43.232;27.972;2023-08-12T14:13:03;4.67;;;3.33;;
6031;SDS011;3044;43.232;27.972;2023-08-12T14:15:31;8.83;;;3.60;;
6031;SDS011;3044;43.232;27.972;2023-08-12T14:17:58;8.30;;;2.97;;
6031;SDS011;3044;43.232;27.972;2023-08-12T14:20:26;5.90;;;3.00;;
6031;SDS011;3044;43.232;27.972;2023-08-12T14:22:53;3.00;;;2.80;;
6031;SDS011;3044;43.232;27.972;2023-08-12T14:25:20;6.57;;;3.90;;
6031;SDS011;3044;43.232;27.972;2023-08-12T14:27:47;8.50;;;3.43;;
6031;SDS011;3044;43.232;27.972;2023-08-12T14:30:17;9.30;;;3.77;;
6031;SDS011;3044;43.232;27.972;2023-08-12T14:32:44;6.83;;;3.40;;
6031;SDS011;3044;43.232;27.972;2023-08-12T14:35:12;10.30;;;4.07;;
6031;SDS011;3044;43.232;27.972;2023-08-12T14:37:39;7.43;;;3.20;;
6031;SDS011;3044;43.232;27.972;2023-08-12T14:40:06;9.17;;;3.60;;
6031;SDS011;3044;43.232;27.972;2023-08-12T14:42:34;6.63;;;3.20;;
6031;SDS011;3044;43.232;27.972;2023-08-12T14:45:02;4.20;;;3.53;;
6031;SDS011;3044;43.232;27.972;2023-08-12T14:47:30;6.63;;;3.40;;
6031;SDS011;3044;43.232;27.972;2023-08-12T14:49:58;6.67;;;3.40;;
6031;SDS011;3044;43.232;27.972;2023-08-12T14:52:25;9.13;;;3.57;;
6031;SDS011;3044;43.232;27.972;2023-08-12T14:54:52;10.93;;;4.20;;
6031;SDS011;3044;43.232;27.972;2023-08-12T14:57:19;10.53;;;3.30;;
6031;SDS011;3044;43.232;27.972;2023-08-12T14:59:47;9.20;;;3.90;;
6031;SDS011;3044;43.232;27.972;2023-08-12T15:02:16;6.07;;;3.20;;
6031;SDS011;3044;43.232;27.972;2023-08-12T15:04:45;8.40;;;3.87;;